Time;durP1;ratioP1;P1;durP2;ratioP2;P2;SDS_P1;SDS_P2;PMS_P1;PMS_P2;Temp;Humidity;BMP_temperature;BMP_pressure;BME280_temperature;BME280_humidity;BME280_pressure;Samples;Min_cycle;Max_cycle;Signal;HPM_P1;HPM_P2
2023/10/30 00:01:16;;;;;;;13.05;2.13;;;10.50;99.90;;;;;;5051208;28;20041;-61
2023/10/30 00:03:42;;;;;;;10.13;2.08;;;10.50;99.90;;;;;;5033801;28;20517;-61
2023/10/30 00:06:07;;;;;;;12.77;1.95;;;10.50;99.90;;;;;;5016981;28;20490;-61
2023/10/30 00:08:33;;;;;;;6.75;1.70;;;10.50;99.90;;;;;;5014600;28;20064;-61
2023/10/30 00:10:59;;;;;;;8.35;2.30;;;10.60;99.90;;;;;;5013598;28;20050;-61
2023/10/30 00:13:25;;;;;;;10.23;2.03;;;10.50;99.90;;;;;;5014067;28;20042;-61
2023/10/30 00:15:50;;;;;;;8.60;2.28;;;10.60;99.90;;;;;;5004691;28;20066;-61
2023/10/30 00:18:16;;;;;;;7.38;1.63;;;10.60;99.90;;;;;;4995999;28;20104;-61
2023/10/30 00:20:42;;;;;;;6.60;2.08;;;10.60;99.90;;;;;;5022588;28;20037;-61
2023/10/30 00:23:07;;;;;;;9.95;2.20;;;10.60;99.90;;;;;;4993087;28;20480;-61
2023/10/30 00:25:33;;;;;;;6.18;1.60;;;10.60;99.90;;;;;;4994368;28;20080;-61
2023/10/30 00:28:00;;;;;;;5.38;1.38;;;10.60;99.90;;;;;;5008971;28;20060;-61
2023/10/30 00:30:26;;;;;;;3.90;1.40;;;10.60;99.90;;;;;;5030748;28;20095;-61
2023/10/30 00:32:52;;;;;;;10.98;1.80;;;10.60;99.90;;;;;;5015590;28;20371;-61
2023/10/30 00:35:18;;;;;;;6.88;1.70;;;10.60;99.90;;;;;;5010457;28;20053;-61
2023/10/30 00:37:44;;;;;;;8.63;2.30;;;10.50;99.90;;;;;;5000122;28;20530;-61
2023/10/30 00:40:10;;;;;;;4.45;1.73;;;10.50;99.90;;;;;;5034370;28;20045;-61
2023/10/30 00:42:36;;;;;;;9.55;1.45;;;10.60;99.90;;;;;;5017364;28;20045;-61
2023/10/30 00:45:04;;;;;;;5.18;1.67;;;10.50;99.90;;;;;;5027866;28;20030;-61
2023/10/30 00:47:30;;;;;;;6.63;1.50;;;10.50;99.90;;;;;;4998105;28;20034;-61
2023/10/30 00:49:56;;;;;;;7.38;1.27;;;10.60;99.90;;;;;;4997352;28;20054;-61
2023/10/30 00:52:21;;;;;;;6.13;1.48;;;10.40;99.90;;;;;;4997059;28;20040;-61
2023/10/30 00:54:47;;;;;;;5.45;1.40;;;10.50;99.90;;;;;;4997851;28;20041;-61
2023/10/30 00:57:13;;;;;;;4.00;1.30;;;10.40;99.90;;;;;;4997059;28;20037;-61
2023/10/30 00:59:40;;;;;;;8.48;2.17;;;10.50;99.90;;;;;;4996826;28;20605;-61
2023/10/30 01:02:06;;;;;;;5.65;1.40;;;10.40;99.90;;;;;;4980716;28;20137;-61
2023/10/30 01:04:31;;;;;;;7.75;1.42;;;10.30;99.90;;;;;;4997688;28;20121;-61
2023/10/30 01:06:58;;;;;;;4.55;1.20;;;10.30;99.90;;;;;;4996335;28;20033;-61
2023/10/30 01:09:23;;;;;;;4.07;0.93;;;10.40;99.90;;;;;;5014709;28;20045;-61
2023/10/30 01:11:49;;;;;;;13.07;1.40;;;10.30;99.90;;;;;;5029123;28;20133;-61
2023/10/30 01:14:15;;;;;;;5.72;1.42;;;10.40;99.90;;;;;;4996546;28;20060;-61
2023/10/30 01:16:40;;;;;;;3.53;1.13;;;10.40;99.90;;;;;;5030169;28;20053;-61
2023/10/30 01:19:06;;;;;;;4.97;1.30;;;10.40;99.90;;;;;;5015434;28;20041;-61
2023/10/30 01:21:33;;;;;;;4.63;1.30;;;10.40;99.90;;;;;;5034740;28;20048;-61
2023/10/30 01:23:59;;;;;;;5.35;0.90;;;10.40;99.90;;;;;;5033848;28;20048;-61
2023/10/30 01:26:25;;;;;;;5.13;1.27;;;10.40;99.90;;;;;;5033474;28;20532;-61
2023/10/30 01:28:50;;;;;;;6.88;1.63;;;10.40;99.90;;;;;;5034190;28;20116;-61
2023/10/30 01:31:16;;;;;;;4.30;1.30;;;10.40;99.90;;;;;;5034159;28;20175;-60
2023/10/30 01:33:42;;;;;;;4.72;1.27;;;10.50;99.90;;;;;;5015439;28;20077;-61
2023/10/30 01:36:08;;;;;;;4.90;1.02;;;10.50;99.90;;;;;;5016427;28;20045;-61
2023/10/30 01:38:33;;;;;;;6.40;1.67;;;10.40;99.90;;;;;;5016611;28;20038;-61
2023/10/30 01:40:59;;;;;;;5.72;1.30;;;10.50;99.90;;;;;;5037424;28;20072;-61
2023/10/30 01:43:32;;;;;;;4.68;1.30;;;10.40;99.90;;;;;;5035128;28;20486;-61
2023/10/30 01:45:59;;;;;;;4.05;0.95;;;10.40;99.90;;;;;;5035294;28;20037;-61
2023/10/30 01:48:35;;;;;;;5.70;1.30;;;10.40;99.90;;;;;;5035244;28;20482;-61
2023/10/30 01:51:02;;;;;;;3.95;1.02;;;10.40;99.90;;;;;;5035275;28;20055;-61
2023/10/30 01:53:29;;;;;;;3.95;0.95;;;10.40;99.90;;;;;;5019582;28;20520;-61
2023/10/30 01:55:56;;;;;;;5.15;1.10;;;10.40;99.90;;;;;;5034681;28;20037;-61
2023/10/30 01:58:25;;;;;;;5.28;1.40;;;10.40;99.90;;;;;;5036059;28;20457;-61
2023/10/30 02:00:53;;;;;;;2.78;1.13;;;10.40;99.90;;;;;;5035830;28;20041;-61
2023/10/30 02:03:18;;;;;;;4.65;1.27;;;10.30;99.90;;;;;;5035288;28;20052;-61
2023/10/30 02:05:44;;;;;;;8.07;1.10;;;10.30;99.90;;;;;;5035592;28;20405;-61
2023/10/30 02:08:11;;;;;;;3.67;1.30;;;10.20;99.90;;;;;;5033120;28;20118;-61
2023/10/30 02:10:37;;;;;;;7.15;1.52;;;10.20;99.90;;;;;;5033306;28;20048;-61
2023/10/30 02:13:07;;;;;;;3.25;1.10;;;10.20;99.90;;;;;;5033023;28;20442;-61
2023/10/30 02:15:33;;;;;;;3.65;0.98;;;10.20;99.90;;;;;;5014722;28;20054;-61
2023/10/30 02:17:59;;;;;;;2.95;1.10;;;10.30;99.90;;;;;;5043954;28;20111;-61
2023/10/30 02:20:25;;;;;;;5.55;1.13;;;10.20;99.90;;;;;;5035315;28;20080;-60
2023/10/30 02:22:51;;;;;;;4.97;1.05;;;10.20;99.90;;;;;;5052210;28;20470;-61
2023/10/30 02:25:24;;;;;;;2.97;0.88;;;10.20;99.90;;;;;;5033219;28;20116;-61
2023/10/30 02:27:50;;;;;;;4.93;0.85;;;10.10;99.90;;;;;;5035256;28;20045;-61
2023/10/30 02:30:16;;;;;;;4.50;0.95;;;10.20;99.90;;;;;;5051824;28;20064;-60
2023/10/30 02:32:44;;;;;;;4.00;0.90;;;10.10;99.90;;;;;;5035078;28;20490;-61
2023/10/30 02:35:12;;;;;;;5.78;1.00;;;10.00;99.90;;;;;;5034708;28;20387;-60
2023/10/30 02:37:37;;;;;;;3.30;1.05;;;10.00;99.90;;;;;;5019350;28;20037;-61
2023/10/30 02:40:03;;;;;;;4.00;1.00;;;10.00;99.90;;;;;;5032196;28;20041;-61
2023/10/30 02:42:29;;;;;;;7.30;1.35;;;9.90;99.90;;;;;;4998775;28;20183;-61
2023/10/30 02:44:55;;;;;;;3.10;0.80;;;9.90;99.90;;;;;;5031629;28;20108;-61
2023/10/30 02:47:23;;;;;;;2.72;1.00;;;9.80;99.90;;;;;;5015127;28;20037;-61
2023/10/30 02:49:49;;;;;;;3.65;0.80;;;9.80;99.90;;;;;;5015398;28;20367;-61
2023/10/30 02:52:14;;;;;;;2.33;0.73;;;9.90;99.90;;;;;;5013753;28;20040;-61
2023/10/30 02:54:40;;;;;;;4.82;1.33;;;9.80;99.90;;;;;;5019754;28;20555;-61
2023/10/30 02:57:06;;;;;;;2.95;1.10;;;9.80;99.90;;;;;;5051703;28;20390;-61
2023/10/30 02:59:31;;;;;;;4.50;1.58;;;9.70;99.90;;;;;;5051608;28;20033;-61
2023/10/30 03:01:58;;;;;;;2.75;1.10;;;9.80;99.90;;;;;;5052087;28;20071;-61
2023/10/30 03:04:24;;;;;;;5.88;1.30;;;9.70;99.90;;;;;;5051285;28;20041;-61
2023/10/30 03:06:50;;;;;;;6.90;1.60;;;9.60;99.90;;;;;;5025221;28;20043;-61
2023/10/30 03:09:16;;;;;;;4.72;1.23;;;9.70;99.90;;;;;;5030582;28;20045;-61
2023/10/30 03:11:41;;;;;;;6.00;2.30;;;9.60;99.90;;;;;;4997742;28;20096;-60
2023/10/30 03:14:07;;;;;;;7.32;1.52;;;9.60;99.90;;;;;;5032912;28;20033;-61
2023/10/30 03:16:32;;;;;;;3.92;1.58;;;9.60;99.90;;;;;;5014775;28;20045;-60
2023/10/30 03:18:58;;;;;;;10.98;2.53;;;9.70;99.90;;;;;;5031112;28;20045;-61
2023/10/30 03:21:24;;;;;;;6.38;1.83;;;9.70;99.90;;;;;;5032070;28;20037;-61
2023/10/30 03:23:49;;;;;;;6.15;2.08;;;9.60;99.90;;;;;;5047593;28;20087;-61
2023/10/30 03:26:16;;;;;;;7.05;1.92;;;9.60;99.90;;;;;;5031056;28;20033;-61
2023/10/30 03:28:42;;;;;;;6.93;1.55;;;9.60;99.90;;;;;;5014586;28;20073;-61
2023/10/30 03:31:09;;;;;;;5.43;1.88;;;9.60;99.90;;;;;;5031797;28;20115;-61
2023/10/30 03:33:36;;;;;;;6.80;1.98;;;9.60;99.90;;;;;;5046456;28;20052;-61
2023/10/30 03:36:03;;;;;;;4.82;2.00;;;9.60;99.90;;;;;;5031600;28;20083;-61
2023/10/30 03:38:28;;;;;;;9.73;2.50;;;9.60;99.90;;;;;;5047558;28;20106;-61
2023/10/30 03:40:54;;;;;;;6.97;2.28;;;9.60;99.90;;;;;;5012891;28;20049;-61
2023/10/30 03:43:19;;;;;;;7.45;1.95;;;9.60;99.90;;;;;;5016376;28;20037;-61
2023/10/30 03:45:45;;;;;;;13.18;2.70;;;9.60;99.90;;;;;;5034290;28;20041;-61
2023/10/30 03:48:11;;;;;;;7.85;2.15;;;9.70;99.90;;;;;;5050640;28;20045;-61
2023/10/30 03:50:37;;;;;;;7.22;2.25;;;9.70;99.90;;;;;;5051758;28;20037;-61
2023/10/30 03:53:03;;;;;;;6.88;2.30;;;9.70;99.90;;;;;;5033576;28;20041;-61
2023/10/30 03:55:28;;;;;;;8.18;2.30;;;9.70;99.90;;;;;;5033443;28;20045;-61
2023/10/30 03:57:54;;;;;;;11.52;2.67;;;9.70;99.90;;;;;;5035702;28;20076;-61
2023/10/30 04:00:20;;;;;;;5.82;2.03;;;9.60;99.90;;;;;;5047136;28;20128;-61
2023/10/30 04:02:46;;;;;;;9.75;2.83;;;9.60;99.90;;;;;;5013469;28;20045;-61
2023/10/30 04:05:12;;;;;;;8.63;2.70;;;9.60;99.90;;;;;;5013397;28;20045;-61
2023/10/30 04:07:38;;;;;;;10.63;3.40;;;9.60;99.90;;;;;;5050702;28;20047;-61
2023/10/30 04:10:04;;;;;;;10.80;2.85;;;9.60;99.90;;;;;;5037575;28;20041;-61
2023/10/30 04:12:29;;;;;;;10.80;2.53;;;9.70;99.90;;;;;;5037728;28;20497;-61
2023/10/30 04:14:55;;;;;;;7.90;2.78;;;9.60;99.90;;;;;;5004058;28;20479;-61
2023/10/30 04:17:21;;;;;;;8.48;2.90;;;9.70;99.90;;;;;;5034262;28;20096;-61
2023/10/30 04:19:47;;;;;;;6.93;2.13;;;9.70;99.90;;;;;;5050995;28;20155;-61
2023/10/30 04:22:12;;;;;;;13.68;2.53;;;9.80;99.90;;;;;;5034368;28;20501;-61
2023/10/30 04:24:38;;;;;;;9.82;2.60;;;9.70;99.90;;;;;;5035737;28;20082;-61
2023/10/30 04:27:04;;;;;;;11.50;2.58;;;9.80;99.90;;;;;;5017523;28;20503;-61
2023/10/30 04:29:29;;;;;;;7.90;2.78;;;9.80;99.90;;;;;;5034466;28;20179;-61
2023/10/30 04:31:55;;;;;;;11.18;2.63;;;9.80;99.90;;;;;;5034860;28;20087;-61
2023/10/30 04:34:21;;;;;;;8.38;2.55;;;9.80;99.90;;;;;;5035100;28;20037;-61
2023/10/30 04:36:47;;;;;;;8.10;2.72;;;9.90;99.90;;;;;;5017125;28;20048;-61
2023/10/30 04:39:13;;;;;;;6.65;2.35;;;9.90;99.90;;;;;;5018067;28;20045;-61
2023/10/30 04:41:39;;;;;;;8.63;1.88;;;9.80;99.90;;;;;;5050447;28;20053;-61
2023/10/30 04:44:05;;;;;;;12.68;2.70;;;9.80;99.90;;;;;;5015958;28;20147;-61
2023/10/30 04:46:31;;;;;;;10.55;2.60;;;9.80;99.90;;;;;;5000968;28;20076;-61
2023/10/30 04:48:57;;;;;;;10.50;2.65;;;9.80;99.90;;;;;;5034326;28;20041;-61
2023/10/30 04:51:25;;;;;;;8.82;2.38;;;9.80;99.90;;;;;;5016336;28;20041;-61
2023/10/30 04:53:51;;;;;;;10.23;2.70;;;9.80;99.90;;;;;;5001041;28;20125;-61
2023/10/30 04:56:16;;;;;;;12.88;2.58;;;9.70;99.90;;;;;;5000565;28;20124;-61
2023/10/30 04:58:42;;;;;;;10.77;2.67;;;9.70;99.90;;;;;;5034085;28;20044;-61
2023/10/30 05:01:09;;;;;;;8.40;2.85;;;9.80;99.90;;;;;;5016469;28;20068;-60
2023/10/30 05:03:35;;;;;;;7.72;2.58;;;9.70;99.90;;;;;;5017101;28;20128;-61
2023/10/30 05:06:02;;;;;;;12.02;3.40;;;9.70;99.90;;;;;;5037692;28;20397;-61
2023/10/30 05:08:27;;;;;;;8.63;2.63;;;9.70;99.90;;;;;;5010557;28;20041;-60
2023/10/30 05:10:53;;;;;;;8.63;2.88;;;9.70;99.90;;;;;;5015489;28;20445;-60
2023/10/30 05:13:20;;;;;;;13.63;3.05;;;9.70;99.90;;;;;;5016974;28;20679;-61
2023/10/30 05:15:46;;;;;;;8.68;2.10;;;9.70;99.90;;;;;;5041611;28;20065;-61
2023/10/30 05:18:13;;;;;;;8.85;2.70;;;9.70;99.90;;;;;;5011108;28;20125;-61
2023/10/30 05:20:39;;;;;;;7.75;2.47;;;9.60;99.90;;;;;;5014840;28;20046;-60
2023/10/30 05:23:04;;;;;;;7.07;2.53;;;9.70;99.90;;;;;;5029628;28;20042;-60
2023/10/30 05:25:30;;;;;;;13.00;3.60;;;9.70;99.90;;;;;;4996364;28;20120;-61
2023/10/30 05:27:57;;;;;;;7.38;2.30;;;9.60;99.90;;;;;;4996217;28;20045;-61
2023/10/30 05:30:23;;;;;;;8.45;2.45;;;9.70;99.90;;;;;;4996863;28;20590;-60
2023/10/30 05:32:48;;;;;;;8.32;2.97;;;9.60;99.90;;;;;;4996324;28;20121;-60
2023/10/30 05:35:14;;;;;;;8.50;2.28;;;9.60;99.90;;;;;;4979977;28;20056;-61
2023/10/30 05:37:40;;;;;;;7.72;2.20;;;9.50;99.90;;;;;;5002046;28;20125;-61
2023/10/30 05:40:07;;;;;;;10.60;2.20;;;9.50;99.90;;;;;;5014732;28;20041;-61
2023/10/30 05:42:34;;;;;;;10.75;3.20;;;9.40;99.90;;;;;;5016352;28;20041;-61
2023/10/30 05:45:00;;;;;;;10.23;3.47;;;9.30;99.90;;;;;;5016189;28;20443;-61
2023/10/30 05:47:25;;;;;;;11.32;3.20;;;9.40;99.90;;;;;;5015141;28;20128;-61
2023/10/30 05:49:51;;;;;;;7.53;2.33;;;9.30;99.90;;;;;;5016530;28;20467;-61
2023/10/30 05:52:16;;;;;;;8.05;2.30;;;9.30;99.90;;;;;;5033467;28;20041;-60
2023/10/30 05:54:42;;;;;;;8.23;2.80;;;9.30;99.90;;;;;;4981706;28;20049;-61
2023/10/30 05:57:10;;;;;;;6.47;2.80;;;9.20;99.90;;;;;;4979716;28;20050;-61
2023/10/30 05:59:36;;;;;;;9.20;2.42;;;9.30;99.90;;;;;;4996320;28;20077;-61
2023/10/30 06:02:01;;;;;;;9.95;2.83;;;9.20;99.90;;;;;;4978591;28;20076;-60
2023/10/30 06:04:27;;;;;;;10.63;2.65;;;9.20;99.90;;;;;;5027751;28;20471;-61
2023/10/30 06:06:53;;;;;;;13.40;3.15;;;9.20;99.90;;;;;;5015556;28;20048;-61
2023/10/30 06:09:19;;;;;;;9.65;3.08;;;9.30;99.90;;;;;;5013945;28;20041;-61
2023/10/30 06:11:49;;;;;;;6.88;2.90;;;9.10;99.90;;;;;;4996464;28;20046;-61
2023/10/30 06:14:15;;;;;;;9.70;3.53;;;9.20;99.90;;;;;;5005042;28;20099;-61
2023/10/30 06:16:41;;;;;;;12.95;3.17;;;9.10;99.90;;;;;;5015342;28;20108;-61
2023/10/30 06:19:07;;;;;;;8.68;3.03;;;9.20;99.90;;;;;;5015132;28;20424;-61
2023/10/30 06:21:33;;;;;;;12.40;3.00;;;9.10;99.90;;;;;;5006942;28;20055;-61
2023/10/30 06:23:58;;;;;;;7.75;2.60;;;9.20;99.90;;;;;;4979135;28;20038;-61
2023/10/30 06:26:24;;;;;;;11.05;2.72;;;9.10;99.90;;;;;;5013476;28;20042;-61
2023/10/30 06:28:50;;;;;;;10.32;3.15;;;9.10;99.90;;;;;;4994971;28;20402;-61
2023/10/30 06:31:17;;;;;;;11.30;2.50;;;9.00;99.90;;;;;;4995026;28;20597;-61
2023/10/30 06:33:43;;;;;;;9.93;3.40;;;9.00;99.90;;;;;;4995702;28;20050;-61
2023/10/30 06:36:09;;;;;;;11.27;2.53;;;9.10;99.90;;;;;;4994619;28;20402;-61
2023/10/30 06:38:36;;;;;;;9.73;3.10;;;9.00;99.90;;;;;;4995882;28;20046;-61
2023/10/30 06:41:05;;;;;;;8.93;2.85;;;9.10;99.90;;;;;;4995114;28;20050;-61
2023/10/30 06:43:34;;;;;;;11.85;3.00;;;9.00;99.90;;;;;;5013822;28;20033;-61
2023/10/30 06:46:04;;;;;;;8.77;2.53;;;9.10;99.90;;;;;;5014621;28;20029;-61
2023/10/30 06:48:30;;;;;;;9.85;2.80;;;9.00;99.90;;;;;;5013484;28;20485;-61
2023/10/30 06:50:56;;;;;;;8.88;2.38;;;9.10;99.90;;;;;;5013527;28;20095;-61
2023/10/30 06:53:23;;;;;;;10.02;2.75;;;9.10;99.90;;;;;;5032804;28;20041;-61
2023/10/30 06:55:50;;;;;;;12.43;2.72;;;9.10;99.90;;;;;;5014852;28;20080;-61
2023/10/30 06:58:16;;;;;;;9.77;2.72;;;9.10;99.90;;;;;;5011292;28;20053;-61
2023/10/30 07:00:42;;;;;;;10.77;3.28;;;9.20;99.90;;;;;;4979409;28;20069;-61
2023/10/30 07:03:08;;;;;;;9.95;2.80;;;9.30;99.90;;;;;;5008525;28;20498;-62
2023/10/30 07:05:34;;;;;;;10.43;3.05;;;9.30;99.90;;;;;;4996093;28;20037;-61
2023/10/30 07:08:00;;;;;;;7.30;2.60;;;9.20;99.90;;;;;;4978608;28;20042;-61
2023/10/30 07:10:26;;;;;;;10.07;2.53;;;9.40;99.90;;;;;;4994315;28;20045;-62
2023/10/30 07:12:51;;;;;;;10.52;2.70;;;9.30;99.90;;;;;;4994766;28;20048;-61
2023/10/30 07:15:17;;;;;;;8.57;2.38;;;9.40;99.90;;;;;;5016107;28;20054;-61
2023/10/30 07:17:43;;;;;;;11.95;2.72;;;9.40;99.90;;;;;;5014043;28;20216;-61
2023/10/30 07:20:09;;;;;;;8.50;2.53;;;9.50;99.90;;;;;;5018208;28;20486;-61
2023/10/30 07:22:36;;;;;;;14.98;2.95;;;9.50;99.90;;;;;;5006612;28;20049;-61
2023/10/30 07:25:02;;;;;;;13.27;3.28;;;9.60;99.90;;;;;;5010688;28;20089;-61
2023/10/30 07:27:28;;;;;;;10.20;2.50;;;9.50;99.90;;;;;;4993949;28;20085;-61
2023/10/30 07:29:53;;;;;;;10.13;3.08;;;9.60;99.90;;;;;;5014419;28;20130;-61
2023/10/30 07:32:19;;;;;;;9.27;3.03;;;9.60;99.90;;;;;;5014536;28;20049;-61
2023/10/30 07:34:45;;;;;;;10.05;2.42;;;9.70;99.90;;;;;;5030115;28;20048;-61
2023/10/30 07:37:11;;;;;;;15.00;2.67;;;9.70;99.90;;;;;;5034971;28;20041;-61
2023/10/30 07:39:36;;;;;;;16.95;3.42;;;9.70;99.90;;;;;;5014470;28;20110;-62
2023/10/30 07:42:02;;;;;;;9.50;2.72;;;9.80;99.90;;;;;;5050899;28;20087;-61
2023/10/30 07:44:28;;;;;;;7.18;2.20;;;9.90;99.90;;;;;;5019306;28;20048;-61
2023/10/30 07:46:54;;;;;;;12.52;3.28;;;9.90;99.90;;;;;;5034192;28;20048;-61
2023/10/30 07:49:19;;;;;;;10.10;2.17;;;10.00;99.90;;;;;;5034762;28;20045;-61
2023/10/30 07:51:45;;;;;;;7.55;2.30;;;10.10;99.90;;;;;;5019477;28;20048;-61
2023/10/30 07:54:11;;;;;;;7.88;2.38;;;10.10;99.90;;;;;;5034386;28;20561;-61
2023/10/30 07:56:38;;;;;;;11.48;2.83;;;10.20;99.90;;;;;;5053490;28;20048;-61
2023/10/30 07:59:07;;;;;;;15.10;3.55;;;10.30;99.90;;;;;;5012264;28;20069;-61
2023/10/30 08:01:33;;;;;;;13.50;2.55;;;10.40;99.90;;;;;;5024308;28;20052;-61
2023/10/30 08:03:59;;;;;;;9.90;2.20;;;10.40;99.90;;;;;;5033196;28;20514;-61
2023/10/30 08:06:25;;;;;;;9.00;2.97;;;10.40;99.90;;;;;;5018536;28;20037;-61
2023/10/30 08:08:52;;;;;;;7.00;2.60;;;10.40;99.90;;;;;;5033981;28;20048;-61
2023/10/30 08:11:18;;;;;;;14.30;2.85;;;10.50;99.90;;;;;;5017724;28;20068;-61
2023/10/30 08:13:43;;;;;;;10.25;2.25;;;10.50;99.90;;;;;;5034185;28;20061;-61
2023/10/30 08:16:10;;;;;;;8.55;2.50;;;10.60;99.90;;;;;;5033847;28;20056;-61
2023/10/30 08:18:39;;;;;;;11.90;3.10;;;10.60;99.90;;;;;;5034157;28;20053;-61
2023/10/30 08:21:06;;;;;;;11.98;3.08;;;10.70;99.90;;;;;;5032950;28;20049;-61
2023/10/30 08:23:34;;;;;;;7.50;2.42;;;10.70;99.90;;;;;;5032765;28;20087;-62
2023/10/30 08:25:59;;;;;;;8.85;2.85;;;10.70;99.90;;;;;;5033396;28;20071;-62
2023/10/30 08:28:25;;;;;;;11.68;3.13;;;10.70;99.90;;;;;;5031535;28;20041;-61
2023/10/30 08:30:51;;;;;;;12.10;3.17;;;10.70;99.90;;;;;;5034459;28;20099;-61
2023/10/30 08:33:16;;;;;;;9.98;2.80;;;10.80;99.90;;;;;;5033713;28;20049;-61
2023/10/30 08:35:42;;;;;;;12.98;3.22;;;10.80;99.90;;;;;;5033933;28;20037;-61
2023/10/30 08:38:07;;;;;;;10.50;3.33;;;10.90;99.90;;;;;;5029502;28;20058;-62
2023/10/30 08:40:33;;;;;;;11.50;3.80;;;11.00;99.90;;;;;;5034283;28;20570;-61
2023/10/30 08:42:59;;;;;;;12.57;3.30;;;11.00;99.90;;;;;;5033065;28;20041;-61
2023/10/30 08:45:26;;;;;;;15.05;4.18;;;11.10;99.90;;;;;;5033938;28;20045;-61
2023/10/30 08:47:51;;;;;;;13.30;3.60;;;11.10;99.90;;;;;;5032937;28;20532;-61
2023/10/30 08:50:17;;;;;;;10.18;3.58;;;11.20;99.90;;;;;;5033223;28;20088;-61
2023/10/30 08:52:43;;;;;;;10.95;3.35;;;11.20;99.90;;;;;;5033540;28;20056;-61
2023/10/30 08:55:09;;;;;;;20.52;4.18;;;11.30;99.90;;;;;;5031614;28;20131;-62
2023/10/30 08:57:35;;;;;;;14.88;3.80;;;11.30;99.90;;;;;;5033323;28;20091;-61
2023/10/30 09:00:00;;;;;;;16.25;5.68;;;11.40;99.90;;;;;;5033549;28;20044;-61
2023/10/30 09:02:26;;;;;;;10.07;3.75;;;11.30;99.90;;;;;;5033952;28;20820;-61
2023/10/30 09:04:52;;;;;;;11.80;4.13;;;11.40;99.90;;;;;;5015411;28;20038;-61
2023/10/30 09:07:17;;;;;;;12.85;3.58;;;11.40;99.90;;;;;;5032835;28;20044;-61
2023/10/30 09:09:43;;;;;;;13.57;3.05;;;11.50;99.90;;;;;;5033174;28;20103;-61
2023/10/30 09:12:09;;;;;;;12.70;3.67;;;11.60;99.90;;;;;;5032205;28;20036;-61
2023/10/30 09:14:35;;;;;;;9.80;2.95;;;11.70;99.90;;;;;;5033950;28;20047;-61
2023/10/30 09:17:00;;;;;;;12.90;3.13;;;11.80;99.90;;;;;;5031651;28;20094;-61
2023/10/30 09:19:27;;;;;;;9.93;3.60;;;11.90;99.90;;;;;;5033608;28;20037;-61
2023/10/30 09:21:52;;;;;;;14.82;3.63;;;12.00;99.90;;;;;;5015300;28;20681;-61
2023/10/30 09:24:18;;;;;;;10.23;2.55;;;12.00;99.90;;;;;;5032011;28;20053;-61
2023/10/30 09:26:44;;;;;;;12.73;3.05;;;12.20;99.90;;;;;;5033811;28;20049;-61
2023/10/30 09:29:10;;;;;;;9.55;2.67;;;12.30;99.90;;;;;;5028683;28;20040;-61
2023/10/30 09:31:36;;;;;;;10.73;3.13;;;12.30;99.90;;;;;;5021965;28;20037;-61
2023/10/30 09:34:01;;;;;;;12.63;3.08;;;12.30;99.90;;;;;;5032753;28;20091;-61
2023/10/30 09:36:27;;;;;;;8.35;2.88;;;12.30;99.90;;;;;;5033993;28;20033;-61
2023/10/30 09:38:53;;;;;;;9.32;3.58;;;12.40;99.90;;;;;;5032759;28;20052;-60
2023/10/30 09:41:20;;;;;;;10.05;3.65;;;12.40;99.90;;;;;;5033911;28;20045;-60
2023/10/30 09:43:49;;;;;;;11.85;3.13;;;12.40;99.90;;;;;;5033996;28;20048;-60
2023/10/30 09:46:16;;;;;;;11.85;3.95;;;12.40;99.90;;;;;;5028849;28;20045;-60
2023/10/30 09:48:44;;;;;;;10.18;3.05;;;12.40;99.90;;;;;;5032553;28;20056;-59
2023/10/30 09:51:11;;;;;;;10.98;3.50;;;12.50;99.90;;;;;;5030870;28;20091;-61
2023/10/30 09:53:38;;;;;;;7.95;2.92;;;12.50;99.90;;;;;;5016022;28;20055;-60
2023/10/30 09:56:06;;;;;;;11.43;3.10;;;12.60;99.90;;;;;;5016054;28;20052;-60
2023/10/30 09:58:33;;;;;;;11.90;3.00;;;12.60;99.90;;;;;;5016304;28;20053;-60
2023/10/30 10:00:59;;;;;;;10.05;2.90;;;12.70;99.90;;;;;;5031162;28;20473;-60
2023/10/30 10:03:25;;;;;;;11.95;3.65;;;12.80;99.90;;;;;;5032582;28;20045;-60
2023/10/30 10:05:56;;;;;;;11.05;2.75;;;12.90;99.90;;;;;;5032027;28;20083;-60
2023/10/30 10:08:22;;;;;;;10.40;2.80;;;12.90;99.90;;;;;;5021735;28;20036;-61
2023/10/30 10:11:02;;;;;;;11.00;3.13;;;12.90;99.90;;;;;;5034661;28;20120;-60
2023/10/30 10:13:33;;;;;;;11.93;2.78;;;13.00;99.90;;;;;;5051905;28;20401;-60
2023/10/30 10:16:00;;;;;;;14.23;3.40;;;13.00;99.90;;;;;;4989771;28;20155;-60
2023/10/30 10:18:33;;;;;;;13.27;3.53;;;13.10;99.90;;;;;;5014262;28;20045;-60
2023/10/30 10:21:01;;;;;;;10.55;2.75;;;13.10;99.90;;;;;;5011785;28;20049;-61
2023/10/30 10:23:31;;;;;;;11.27;2.95;;;13.10;99.90;;;;;;5015306;28;20052;-61
2023/10/30 10:25:58;;;;;;;10.25;3.33;;;13.20;99.90;;;;;;4998986;28;20045;-60
2023/10/30 10:28:25;;;;;;;9.68;2.80;;;13.20;99.90;;;;;;5015218;28;20475;-62
2023/10/30 10:30:54;;;;;;;12.73;2.83;;;13.20;99.90;;;;;;5005589;28;20050;-62
2023/10/30 10:33:27;;;;;;;13.55;2.88;;;13.20;99.90;;;;;;5006294;28;20046;-62
2023/10/30 10:35:54;;;;;;;9.90;2.97;;;13.20;99.90;;;;;;5032103;28;20037;-61
2023/10/30 10:38:21;;;;;;;9.50;2.83;;;13.30;99.90;;;;;;5015191;28;20088;-62
2023/10/30 10:40:47;;;;;;;12.80;2.63;;;13.20;99.90;;;;;;5015237;28;20076;-61
2023/10/30 10:43:18;;;;;;;11.45;2.75;;;13.20;99.90;;;;;;4997573;28;20128;-62
2023/10/30 10:45:46;;;;;;;12.85;2.97;;;13.30;99.90;;;;;;5015258;28;20049;-61
2023/10/30 10:48:12;;;;;;;7.47;2.60;;;13.30;99.90;;;;;;4998082;28;20099;-62
2023/10/30 10:50:38;;;;;;;14.07;3.60;;;13.30;99.90;;;;;;5014284;28;20091;-61
2023/10/30 10:53:06;;;;;;;10.23;3.22;;;13.30;99.90;;;;;;5014451;28;20045;-61
2023/10/30 10:55:38;;;;;;;9.68;2.60;;;13.30;99.90;;;;;;5014169;28;20052;-61
2023/10/30 10:58:17;;;;;;;7.50;3.15;;;13.20;99.90;;;;;;4998026;28;20120;-62
2023/10/30 11:00:51;;;;;;;13.90;3.03;;;13.30;99.90;;;;;;5015135;28;20120;-61
2023/10/30 11:03:17;;;;;;;8.88;3.53;;;13.30;99.90;;;;;;5014001;28;20120;-61
2023/10/30 11:05:47;;;;;;;16.63;3.28;;;13.30;99.90;;;;;;5014688;28;20120;-61
2023/10/30 11:08:20;;;;;;;13.70;4.10;;;13.40;99.90;;;;;;5014617;28;20545;-61
2023/10/30 11:10:53;;;;;;;14.07;2.63;;;13.50;99.90;;;;;;5014151;28;20128;-61
2023/10/30 11:13:58;;;;;;;13.77;3.47;;;13.50;99.90;;;;;;5015014;28;20107;-61
2023/10/30 11:16:28;;;;;;;7.05;2.50;;;13.50;99.90;;;;;;5026829;28;20136;-61
2023/10/30 11:18:58;;;;;;;10.35;3.08;;;13.60;99.90;;;;;;5033431;28;20390;-62
2023/10/30 11:21:28;;;;;;;7.65;2.35;;;13.60;99.90;;;;;;5052237;28;20049;-61
2023/10/30 11:23:56;;;;;;;8.70;2.47;;;13.70;99.90;;;;;;5050888;28;20465;-62
2023/10/30 11:26:37;;;;;;;9.25;2.45;;;13.70;99.90;;;;;;5052198;28;20431;-61
2023/10/30 11:29:08;;;;;;;13.13;2.28;;;13.80;99.90;;;;;;5033857;28;20116;-62
2023/10/30 11:32:02;;;;;;;12.18;3.35;;;13.70;99.90;;;;;;5051515;28;20401;-61
2023/10/30 11:34:29;;;;;;;11.55;3.05;;;13.70;99.90;;;;;;5034266;28;20540;-61
2023/10/30 11:36:59;;;;;;;9.35;3.38;;;13.60;99.90;;;;;;5033759;28;20094;-61
2023/10/30 11:39:25;;;;;;;9.27;2.80;;;13.70;99.90;;;;;;5033370;28;20045;-61
2023/10/30 11:41:53;;;;;;;11.18;2.85;;;13.60;99.90;;;;;;5034185;28;20045;-61
2023/10/30 11:44:20;;;;;;;12.75;2.92;;;13.60;99.90;;;;;;5017655;28;20494;-61
2023/10/30 11:46:50;;;;;;;12.27;3.20;;;13.60;99.90;;;;;;5033409;28;20103;-61
2023/10/30 11:49:18;;;;;;;15.18;4.20;;;13.60;99.90;;;;;;5033483;28;20461;-61
2023/10/30 11:51:50;;;;;;;8.40;2.60;;;13.70;99.90;;;;;;5033650;28;20478;-61
2023/10/30 11:54:32;;;;;;;10.50;2.75;;;13.60;99.90;;;;;;5033475;28;20060;-61
2023/10/30 11:57:00;;;;;;;10.20;2.78;;;13.60;99.90;;;;;;5033486;28;20040;-62
2023/10/30 11:59:26;;;;;;;9.38;2.40;;;13.70;99.90;;;;;;5033378;28;20059;-61
2023/10/30 12:01:54;;;;;;;13.93;2.58;;;13.70;99.90;;;;;;5033751;28;20045;-62
2023/10/30 12:04:21;;;;;;;12.43;2.90;;;13.70;99.90;;;;;;5051565;28;20041;-61
2023/10/30 12:06:46;;;;;;;13.07;3.20;;;13.70;99.90;;;;;;5033551;28;20041;-61
2023/10/30 12:09:12;;;;;;;12.30;2.72;;;13.70;99.90;;;;;;5033556;28;20497;-61
2023/10/30 12:11:38;;;;;;;7.78;2.17;;;13.70;99.90;;;;;;5034163;28;20049;-61
2023/10/30 12:14:04;;;;;;;10.32;2.47;;;13.70;99.90;;;;;;5032707;28;20393;-61
2023/10/30 12:16:30;;;;;;;6.90;2.30;;;13.80;99.90;;;;;;5020522;28;20522;-61
2023/10/30 12:18:57;;;;;;;12.20;2.50;;;13.70;99.90;;;;;;5013353;28;20056;-62
2023/10/30 12:21:22;;;;;;;8.50;2.47;;;13.80;99.90;;;;;;5013311;28;20052;-61
2023/10/30 12:23:49;;;;;;;10.55;2.60;;;13.80;99.90;;;;;;5014010;28;20045;-61
2023/10/30 12:26:15;;;;;;;11.20;2.88;;;13.80;99.90;;;;;;5013736;28;20051;-61
2023/10/30 12:28:41;;;;;;;13.20;2.70;;;13.80;99.90;;;;;;5015900;28;20121;-62
2023/10/30 12:31:20;;;;;;;7.70;3.58;;;13.80;99.90;;;;;;5001045;28;20049;-61
2023/10/30 12:33:46;;;;;;;11.68;3.15;;;13.80;99.90;;;;;;5017571;28;20049;-61
2023/10/30 12:36:13;;;;;;;12.70;3.35;;;13.70;99.90;;;;;;5016308;28;20152;-61
2023/10/30 12:38:38;;;;;;;10.43;2.78;;;13.70;99.90;;;;;;5035352;28;20079;-61
2023/10/30 12:41:07;;;;;;;9.43;2.90;;;13.70;99.90;;;;;;5015948;28;20085;-61
2023/10/30 12:43:44;;;;;;;9.95;2.80;;;13.80;99.90;;;;;;5017451;28;20046;-61